Time;durP1;ratioP1;P1;durP2;ratioP2;P2;SDS_P1;SDS_P2;PMS_P1;PMS_P2;Temp;Humidity;BMP_temperature;BMP_pressure;BME280_temperature;BME280_humidity;BME280_pressure;Samples;Min_cycle;Max_cycle;Signal;HPM_P1;HPM_P2
2022/09/29 00:00:11;;;;;;;576.70;400.30;;;12.40;99.90;;;;;;5035780;28;20654;-72
2022/09/29 00:02:37;;;;;;;572.30;387.27;;;12.40;99.90;;;;;;5042826;28;20194;-73
2022/09/29 00:05:05;;;;;;;569.97;394.30;;;12.40;99.90;;;;;;5038998;28;20210;-74
2022/09/29 00:07:33;;;;;;;566.08;380.70;;;12.40;99.90;;;;;;5049087;28;20195;-73
2022/09/29 00:10:00;;;;;;;574.20;397.30;;;12.40;99.90;;;;;;5043768;28;20199;-73
2022/09/29 00:12:27;;;;;;;570.92;385.73;;;12.40;99.90;;;;;;5035322;28;20211;-74
2022/09/29 00:14:53;;;;;;;563.35;373.73;;;12.40;99.90;;;;;;5043234;28;20210;-73
2022/09/29 00:17:20;;;;;;;570.28;388.80;;;12.30;99.90;;;;;;5039001;28;20234;-74
2022/09/29 00:19:47;;;;;;;571.60;387.65;;;12.40;99.90;;;;;;5046634;28;20300;-73
2022/09/29 00:22:14;;;;;;;570.33;386.60;;;12.30;99.90;;;;;;5046971;28;20199;-73
2022/09/29 00:24:42;;;;;;;574.05;392.00;;;12.30;99.90;;;;;;5040441;28;20215;-73
2022/09/29 00:27:08;;;;;;;572.15;386.52;;;12.30;99.90;;;;;;5033260;28;20196;-73
2022/09/29 00:29:35;;;;;;;569.95;382.65;;;12.30;99.90;;;;;;5034863;28;20208;-74
2022/09/29 00:32:02;;;;;;;570.35;378.73;;;12.30;99.90;;;;;;5047765;28;20195;-71
2022/09/29 00:34:28;;;;;;;569.75;380.45;;;12.30;99.90;;;;;;5042349;28;20206;-72
2022/09/29 00:36:55;;;;;;;573.17;383.75;;;12.30;99.90;;;;;;5045729;28;20194;-73
2022/09/29 00:39:22;;;;;;;570.40;384.17;;;12.30;99.90;;;;;;5048763;28;20315;-73
2022/09/29 00:41:50;;;;;;;568.08;378.98;;;12.30;99.90;;;;;;5049974;28;20226;-73
2022/09/29 00:44:54;;;;;;;571.67;384.30;;;12.30;99.90;;;;;;5049303;28;20195;-72
2022/09/29 00:47:22;;;;;;;567.40;378.20;;;12.20;99.90;;;;;;5038416;28;20203;-74
2022/09/29 00:49:55;;;;;;;566.85;357.70;;;12.30;99.90;;;;;;5045623;28;20199;-73
2022/09/29 00:52:26;;;;;;;570.70;383.08;;;12.30;99.90;;;;;;5039245;28;20647;-73
2022/09/29 00:54:56;;;;;;;571.05;375.70;;;12.20;99.90;;;;;;5042045;28;20187;-74
2022/09/29 00:57:28;;;;;;;567.90;367.35;;;12.20;99.90;;;;;;5049742;28;20202;-73
2022/09/29 01:00:01;;;;;;;566.22;370.60;;;12.20;99.90;;;;;;5039768;28;20218;-75
2022/09/29 01:02:30;;;;;;;566.08;367.85;;;12.20;99.90;;;;;;5038611;28;20196;-74
2022/09/29 01:05:00;;;;;;;564.75;363.38;;;12.20;99.90;;;;;;5050593;28;20601;-74
2022/09/29 01:07:27;;;;;;;569.70;374.05;;;12.20;99.90;;;;;;5048083;28;20282;-72
2022/09/29 01:09:56;;;;;;;557.47;370.15;;;12.20;99.90;;;;;;5046885;28;20200;-73
2022/09/29 01:12:24;;;;;;;566.13;376.30;;;12.10;99.90;;;;;;5049716;28;20214;-73
2022/09/29 01:14:53;;;;;;;565.60;377.25;;;12.20;99.90;;;;;;5049251;28;20210;-73
2022/09/29 01:17:20;;;;;;;566.53;378.33;;;12.10;99.90;;;;;;5042839;28;20219;-73
2022/09/29 01:19:53;;;;;;;566.80;388.73;;;12.10;99.90;;;;;;5042566;28;20214;-72
2022/09/29 01:22:39;;;;;;;565.60;374.50;;;12.10;99.90;;;;;;5037043;28;20199;-73
2022/09/29 01:25:34;;;;;;;563.72;373.60;;;12.10;99.90;;;;;;5043547;28;20199;-74
2022/09/29 01:28:27;;;;;;;566.65;367.65;;;12.10;99.90;;;;;;5037815;28;20196;-73
2022/09/29 01:31:11;;;;;;;564.15;362.20;;;12.10;99.90;;;;;;5043343;28;20195;-74
2022/09/29 01:33:43;;;;;;;568.83;368.17;;;12.10;99.90;;;;;;5047750;28;20209;-74
2022/09/29 01:36:17;;;;;;;570.50;366.77;;;12.10;99.90;;;;;;5053210;28;20202;-73
2022/09/29 01:38:54;;;;;;;571.00;365.77;;;12.00;99.90;;;;;;5038351;28;20218;-74
2022/09/29 01:41:30;;;;;;;570.15;362.15;;;12.10;99.90;;;;;;5038097;28;20191;-74
2022/09/29 01:44:03;;;;;;;568.75;361.85;;;12.10;99.90;;;;;;5045538;28;20191;-73
2022/09/29 01:46:35;;;;;;;568.03;368.33;;;12.10;99.90;;;;;;5041062;28;20503;-74
2022/09/29 01:49:03;;;;;;;567.08;362.67;;;12.00;99.90;;;;;;5047419;28;20207;-73
2022/09/29 01:51:36;;;;;;;569.83;364.88;;;12.10;99.90;;;;;;5039061;28;20196;-73
2022/09/29 01:54:08;;;;;;;569.92;366.45;;;12.00;99.90;;;;;;5046005;28;20203;-73
2022/09/29 01:56:41;;;;;;;575.58;371.65;;;12.00;99.90;;;;;;5046425;28;20199;-74
2022/09/29 01:59:13;;;;;;;573.22;363.33;;;12.00;99.90;;;;;;5041718;28;20224;-73
2022/09/29 02:01:45;;;;;;;575.83;369.77;;;12.00;99.90;;;;;;5036737;28;20204;-73
2022/09/29 02:04:16;;;;;;;574.78;367.60;;;12.00;99.90;;;;;;5041688;28;20203;-73
2022/09/29 02:06:48;;;;;;;578.55;377.50;;;12.00;99.90;;;;;;5048192;28;20673;-74
2022/09/29 02:09:19;;;;;;;579.60;372.33;;;12.00;99.90;;;;;;5044775;28;20199;-73
2022/09/29 02:11:50;;;;;;;581.10;372.58;;;12.00;99.90;;;;;;5044689;28;20200;-74
2022/09/29 02:14:20;;;;;;;573.30;358.92;;;12.00;99.90;;;;;;5043565;28;20715;-73
2022/09/29 02:16:50;;;;;;;576.00;368.67;;;12.00;99.90;;;;;;5045305;28;20222;-74
2022/09/29 02:19:21;;;;;;;576.78;372.05;;;12.00;99.90;;;;;;5047337;28;20241;-73
2022/09/29 02:21:47;;;;;;;578.83;376.40;;;12.00;99.90;;;;;;5044814;28;20199;-73
2022/09/29 02:24:14;;;;;;;578.33;362.88;;;12.00;99.90;;;;;;5042383;28;20861;-73
2022/09/29 02:26:41;;;;;;;583.13;375.90;;;12.00;99.90;;;;;;5041531;28;20200;-74
2022/09/29 02:29:09;;;;;;;582.00;371.00;;;12.00;99.90;;;;;;5046973;28;20565;-73
2022/09/29 02:31:37;;;;;;;576.65;371.50;;;11.90;99.90;;;;;;5042290;28;20192;-73
2022/09/29 02:34:07;;;;;;;573.47;375.48;;;11.90;99.90;;;;;;5036042;28;20741;-73
2022/09/29 02:36:40;;;;;;;583.17;364.55;;;11.90;99.90;;;;;;5033422;28;20203;-72
2022/09/29 02:39:15;;;;;;;582.00;363.23;;;11.90;99.90;;;;;;5043709;28;20206;-73
2022/09/29 02:41:56;;;;;;;588.05;364.98;;;11.90;99.90;;;;;;5038462;28;20214;-73
2022/09/29 02:44:45;;;;;;;582.45;356.17;;;11.90;99.90;;;;;;5035687;28;20203;-73
2022/09/29 02:47:31;;;;;;;592.72;362.50;;;11.90;99.90;;;;;;5037443;28;20195;-73
2022/09/29 02:50:17;;;;;;;587.05;357.50;;;11.90;99.90;;;;;;5037116;28;20191;-73
2022/09/29 02:52:54;;;;;;;589.72;358.25;;;11.90;99.90;;;;;;5045953;28;20207;-74
2022/09/29 02:55:28;;;;;;;588.05;349.35;;;11.90;99.90;;;;;;5043504;28;20198;-73
2022/09/29 02:58:02;;;;;;;592.95;359.05;;;11.80;99.90;;;;;;5038910;28;20211;-73
2022/09/29 03:00:29;;;;;;;597.92;360.25;;;11.80;99.90;;;;;;5042857;28;20220;-73
2022/09/29 03:02:56;;;;;;;601.97;361.35;;;11.80;99.90;;;;;;5034758;28;20250;-74
2022/09/29 03:05:24;;;;;;;602.80;344.42;;;11.80;99.90;;;;;;5047052;28;20206;-72
2022/09/29 03:07:51;;;;;;;604.95;360.58;;;11.80;99.90;;;;;;5042753;28;20329;-73
2022/09/29 03:10:19;;;;;;;607.92;364.20;;;11.80;99.90;;;;;;5040363;28;20246;-73
2022/09/29 03:12:46;;;;;;;614.63;358.17;;;11.80;99.90;;;;;;5044211;28;20198;-73
2022/09/29 03:15:13;;;;;;;631.50;368.13;;;11.80;99.90;;;;;;5041249;28;20622;-73
2022/09/29 03:17:40;;;;;;;642.47;371.42;;;11.80;99.90;;;;;;5044858;28;20219;-73
2022/09/29 03:20:08;;;;;;;626.58;373.08;;;11.80;99.90;;;;;;5034543;28;20637;-73
2022/09/29 03:22:36;;;;;;;628.75;359.98;;;11.70;99.90;;;;;;5032878;28;20211;-74
2022/09/29 03:25:04;;;;;;;624.65;336.70;;;11.70;99.90;;;;;;5037294;28;20218;-74
2022/09/29 03:27:32;;;;;;;623.03;359.23;;;11.70;99.90;;;;;;5037740;28;20195;-73
2022/09/29 03:29:58;;;;;;;613.75;355.52;;;11.70;99.90;;;;;;5048976;28;20198;-73
2022/09/29 03:32:25;;;;;;;606.90;363.90;;;11.70;99.90;;;;;;5045143;28;20218;-73
2022/09/29 03:34:52;;;;;;;603.85;360.27;;;11.70;99.90;;;;;;5045422;28;20202;-73
2022/09/29 03:37:18;;;;;;;609.90;354.88;;;11.70;99.90;;;;;;5042490;28;20195;-73
2022/09/29 03:39:46;;;;;;;636.20;362.13;;;11.70;99.90;;;;;;5038577;28;20221;-73
2022/09/29 03:42:13;;;;;;;672.15;366.08;;;11.70;99.90;;;;;;5041400;28;20199;-74
2022/09/29 03:44:40;;;;;;;663.15;389.38;;;11.60;99.90;;;;;;5048111;28;20195;-73
2022/09/29 03:47:06;;;;;;;636.75;360.77;;;11.70;99.90;;;;;;5034572;28;20192;-73
2022/09/29 03:49:34;;;;;;;662.63;339.70;;;11.70;99.90;;;;;;5049139;28;20575;-73
2022/09/29 03:52:01;;;;;;;584.78;358.02;;;11.60;99.90;;;;;;5047769;28;20187;-73
2022/09/29 03:54:28;;;;;;;582.47;374.05;;;11.60;99.90;;;;;;5044940;28;20199;-73
2022/09/29 03:56:56;;;;;;;579.30;362.35;;;11.60;99.90;;;;;;5037604;28;20196;-73
2022/09/29 03:59:22;;;;;;;574.38;357.92;;;11.60;99.90;;;;;;5036237;28;20674;-73
2022/09/29 04:01:49;;;;;;;575.95;355.67;;;11.60;99.90;;;;;;5045195;28;20671;-73
2022/09/29 04:04:16;;;;;;;567.10;325.35;;;11.60;99.90;;;;;;5044430;28;20214;-73
2022/09/29 04:06:42;;;;;;;579.92;367.10;;;11.60;99.90;;;;;;5037948;28;20321;-74
2022/09/29 04:09:09;;;;;;;575.08;348.33;;;11.60;99.90;;;;;;5042914;28;20196;-73
2022/09/29 04:11:36;;;;;;;571.35;338.98;;;11.60;99.90;;;;;;5042850;28;20197;-72
2022/09/29 04:14:04;;;;;;;579.72;353.75;;;11.60;99.90;;;;;;5054287;28;20198;-73
2022/09/29 04:16:32;;;;;;;574.55;340.48;;;11.50;99.90;;;;;;5049564;28;20628;-73
2022/09/29 04:18:58;;;;;;;584.53;356.17;;;11.50;99.90;;;;;;5046920;28;20191;-73
2022/09/29 04:21:25;;;;;;;581.90;339.45;;;11.50;99.90;;;;;;5046324;28;20194;-73
2022/09/29 04:23:52;;;;;;;582.63;344.45;;;11.50;99.90;;;;;;5046173;28;20272;-74
2022/09/29 04:26:19;;;;;;;586.78;348.08;;;11.50;99.90;;;;;;5048236;28;20195;-73
2022/09/29 04:28:46;;;;;;;592.38;356.40;;;11.50;99.90;;;;;;5045935;28;20283;-73
2022/09/29 04:31:14;;;;;;;595.70;353.67;;;11.50;99.90;;;;;;5040052;28;20202;-73
2022/09/29 04:33:41;;;;;;;596.10;353.20;;;11.50;99.90;;;;;;5043806;28;20196;-73
2022/09/29 04:36:08;;;;;;;597.95;354.98;;;11.50;99.90;;;;;;5039273;28;20188;-73
2022/09/29 04:38:34;;;;;;;601.95;347.80;;;11.50;99.90;;;;;;5042488;28;20215;-73
2022/09/29 04:41:01;;;;;;;598.70;343.90;;;11.50;99.90;;;;;;5045820;28;20230;-73
2022/09/29 04:43:28;;;;;;;608.42;348.95;;;11.50;99.90;;;;;;5041953;28;20586;-73
2022/09/29 04:46:02;;;;;;;669.75;362.17;;;11.50;99.90;;;;;;5045924;28;20199;-73
2022/09/29 04:48:30;;;;;;;670.67;322.60;;;11.50;99.90;;;;;;5037770;28;20212;-74
2022/09/29 04:50:56;;;;;;;674.75;341.27;;;11.40;99.90;;;;;;5047389;28;20218;-74
2022/09/29 04:53:23;;;;;;;674.70;338.15;;;11.40;99.90;;;;;;5046791;28;20558;-74
2022/09/29 04:55:50;;;;;;;677.05;346.58;;;11.40;99.90;;;;;;5043149;28;20211;-74
2022/09/29 04:58:16;;;;;;;666.75;356.10;;;11.40;99.90;;;;;;5036264;28;20203;-72
2022/09/29 05:00:43;;;;;;;674.03;351.52;;;11.40;99.90;;;;;;5043480;28;20211;-73
2022/09/29 05:03:10;;;;;;;671.40;328.77;;;11.40;99.90;;;;;;5034345;28;20682;-74
2022/09/29 05:05:38;;;;;;;678.38;352.02;;;11.40;99.90;;;;;;5046974;28;20198;-73
2022/09/29 05:08:05;;;;;;;673.97;352.98;;;11.40;99.90;;;;;;5044917;28;20199;-73
2022/09/29 05:10:32;;;;;;;673.60;343.52;;;11.40;99.90;;;;;;5034628;28;20710;-72
2022/09/29 05:12:59;;;;;;;668.60;334.77;;;11.40;99.90;;;;;;5044849;28;20191;-73
2022/09/29 05:15:26;;;;;;;674.15;349.52;;;11.30;99.90;;;;;;5042442;28;20207;-73
2022/09/29 05:17:53;;;;;;;676.22;349.67;;;11.30;99.90;;;;;;5047704;28;20268;-75
2022/09/29 05:20:19;;;;;;;676.17;349.48;;;11.30;99.90;;;;;;5039234;28;20574;-74
2022/09/29 05:22:47;;;;;;;671.88;341.55;;;11.30;99.90;;;;;;5049116;28;20195;-73
2022/09/29 05:25:14;;;;;;;670.05;338.45;;;11.30;99.90;;;;;;5042444;28;20195;-70
2022/09/29 05:27:41;;;;;;;671.30;329.75;;;11.30;99.90;;;;;;5047053;28;20203;-73
2022/09/29 05:30:08;;;;;;;673.28;342.05;;;11.30;99.90;;;;;;5043523;28;20199;-72
2022/09/29 05:32:35;;;;;;;672.10;338.60;;;11.30;99.90;;;;;;5045379;28;20202;-74
2022/09/29 05:35:02;;;;;;;671.60;334.35;;;11.30;99.90;;;;;;5046069;28;20206;-73
2022/09/29 05:37:29;;;;;;;672.60;345.05;;;11.30;99.90;;;;;;5052042;28;20207;-73
2022/09/29 05:39:57;;;;;;;673.95;340.20;;;11.30;99.90;;;;;;5040524;28;20685;-72
2022/09/29 05:42:24;;;;;;;676.78;344.00;;;11.30;99.90;;;;;;5038878;28;20191;-73
2022/09/29 05:44:51;;;;;;;667.88;338.70;;;11.30;99.90;;;;;;5046331;28;20196;-71
2022/09/29 05:47:17;;;;;;;675.97;349.27;;;11.30;99.90;;;;;;5043073;28;20198;-72
2022/09/29 05:49:44;;;;;;;670.92;330.55;;;11.20;99.90;;;;;;5039873;28;20203;-73
2022/09/29 05:52:11;;;;;;;674.85;339.25;;;11.20;99.90;;;;;;5043174;28;20195;-72
2022/09/29 05:54:38;;;;;;;669.25;322.45;;;11.30;99.90;;;;;;5044245;28;20291;-72
2022/09/29 05:57:06;;;;;;;668.53;317.13;;;11.20;99.90;;;;;;5047744;28;20279;-72
2022/09/29 05:59:32;;;;;;;668.40;319.17;;;11.30;99.90;;;;;;5039704;28;20191;-73
2022/09/29 06:01:59;;;;;;;672.85;336.52;;;11.30;99.90;;;;;;5042661;28;20199;-73
2022/09/29 06:04:26;;;;;;;670.55;328.70;;;11.30;99.90;;;;;;5044770;28;20211;-73
2022/09/29 06:06:54;;;;;;;669.22;322.45;;;11.30;99.90;;;;;;5042870;28;20191;-73
2022/09/29 06:09:20;;;;;;;670.33;338.13;;;11.30;99.90;;;;;;5040200;28;20638;-72
2022/09/29 06:11:47;;;;;;;671.72;324.80;;;11.30;99.90;;;;;;5040223;28;20642;-73
2022/09/29 06:14:15;;;;;;;672.95;338.90;;;11.30;99.90;;;;;;5044283;28;20194;-74
2022/09/29 06:16:43;;;;;;;672.50;346.13;;;11.30;99.90;;;;;;5046041;28;20221;-74
2022/09/29 06:19:10;;;;;;;674.75;350.42;;;11.30;99.90;;;;;;5043175;28;20288;-73
2022/09/29 06:21:38;;;;;;;667.33;322.63;;;11.30;99.90;;;;;;5048852;28;20222;-74
2022/09/29 06:24:06;;;;;;;669.35;344.95;;;11.30;99.90;;;;;;5040275;28;20258;-74
2022/09/29 06:26:33;;;;;;;670.03;334.00;;;11.30;99.90;;;;;;5040581;28;20843;-74
2022/09/29 06:29:00;;;;;;;669.90;335.33;;;11.40;99.90;;;;;;5047014;28;20198;-75
2022/09/29 06:31:29;;;;;;;672.60;338.40;;;11.50;99.90;;;;;;5039186;28;20200;-73
2022/09/29 06:33:57;;;;;;;674.33;347.70;;;11.60;99.90;;;;;;5041104;28;20221;-74
2022/09/29 06:39:13;;;;;;;674.58;347.73;;;11.80;99.90;;;;;;5038849;28;20575;-75
2022/09/29 06:41:40;;;;;;;677.17;354.38;;;11.80;99.90;;;;;;5048556;28;20673;-75
2022/09/29 06:44:07;;;;;;;676.10;357.58;;;11.80;99.90;;;;;;5040812;28;20192;-74
2022/09/29 06:46:35;;;;;;;676.00;357.20;;;11.80;99.90;;;;;;5043495;28;20203;-73
2022/09/29 06:49:02;;;;;;;677.35;367.25;;;11.80;99.90;;;;;;5044107;28;20708;-73
2022/09/29 06:51:29;;;;;;;676.10;362.55;;;11.90;99.90;;;;;;5044256;28;20203;-74
2022/09/29 06:53:55;;;;;;;677.80;364.02;;;11.80;99.90;;;;;;5046556;28;20222;-72
2022/09/29 06:56:22;;;;;;;676.40;359.83;;;11.80;99.90;;;;;;5047451;28;20191;-72
2022/09/29 06:58:49;;;;;;;676.50;363.27;;;11.90;99.90;;;;;;5046387;28;20192;-72
2022/09/29 07:01:15;;;;;;;682.80;370.85;;;11.90;99.90;;;;;;5040878;28;20278;-73
2022/09/29 07:03:43;;;;;;;679.58;366.33;;;12.00;99.90;;;;;;5033236;28;20195;-71
2022/09/29 07:06:11;;;;;;;682.22;375.33;;;12.20;99.90;;;;;;5041136;28;20198;-72
2022/09/29 07:08:38;;;;;;;682.20;367.58;;;12.30;99.90;;;;;;5046652;28;20207;-72
2022/09/29 07:11:06;;;;;;;682.80;395.55;;;12.40;99.90;;;;;;5038482;28;20673;-73
2022/09/29 07:13:33;;;;;;;682.22;388.65;;;12.50;99.90;;;;;;5043236;28;20662;-72
2022/09/29 07:16:05;;;;;;;689.83;399.35;;;12.60;99.90;;;;;;5042803;28;20196;-72
2022/09/29 07:18:32;;;;;;;686.30;405.90;;;12.80;99.90;;;;;;5045548;28;20196;-72
2022/09/29 07:21:00;;;;;;;688.35;405.75;;;12.90;99.90;;;;;;5045004;28;20257;-72
2022/09/29 07:23:27;;;;;;;683.80;401.52;;;13.00;99.90;;;;;;5046909;28;20233;-73
2022/09/29 07:25:54;;;;;;;658.10;422.88;;;13.20;99.90;;;;;;5037384;28;20280;-73
2022/09/29 07:28:21;;;;;;;657.42;429.25;;;13.30;99.90;;;;;;5042343;28;20195;-72
2022/09/29 07:30:47;;;;;;;652.20;415.80;;;13.40;99.90;;;;;;5046153;28;20201;-73
2022/09/29 07:33:14;;;;;;;656.63;440.92;;;13.50;99.90;;;;;;5046612;28;20198;-73
2022/09/29 07:35:40;;;;;;;658.08;445.80;;;13.60;99.90;;;;;;5048323;28;20583;-73
2022/09/29 07:38:08;;;;;;;659.88;459.77;;;13.70;99.90;;;;;;5052203;28;20198;-74
2022/09/29 07:40:35;;;;;;;656.95;452.77;;;13.80;99.90;;;;;;5040829;28;20428;-73
2022/09/29 07:43:02;;;;;;;661.53;464.27;;;13.90;99.90;;;;;;5046566;28;20626;-72
2022/09/29 07:45:29;;;;;;;658.20;469.17;;;13.90;99.90;;;;;;5053210;28;20202;-72
2022/09/29 07:47:56;;;;;;;654.17;467.60;;;14.00;99.90;;;;;;5050831;28;20222;-74
2022/09/29 07:50:23;;;;;;;656.50;482.92;;;14.10;99.90;;;;;;5044929;28;20280;-73
2022/09/29 07:52:51;;;;;;;652.17;471.05;;;14.10;99.90;;;;;;5054214;28;20209;-73
2022/09/29 07:55:20;;;;;;;650.25;474.80;;;14.20;99.90;;;;;;5052792;28;20195;-74
2022/09/29 07:57:47;;;;;;;651.60;475.95;;;14.10;99.90;;;;;;5048769;28;20567;-73
2022/09/29 08:00:16;;;;;;;652.10;480.05;;;14.20;99.90;;;;;;5051099;28;20206;-72
2022/09/29 08:02:42;;;;;;;651.47;485.30;;;14.20;99.90;;;;;;5050380;28;20204;-72
2022/09/29 08:05:09;;;;;;;652.85;488.27;;;14.20;99.90;;;;;;5048228;28;20649;-72
2022/09/29 08:07:36;;;;;;;650.35;484.13;;;14.30;99.90;;;;;;5047759;28;20199;-74
2022/09/29 08:10:03;;;;;;;654.85;499.23;;;14.30;99.90;;;;;;5050697;28;20214;-74
2022/09/29 08:12:31;;;;;;;648.55;493.75;;;14.40;99.90;;;;;;5045642;28;20546;-74
2022/09/29 08:14:58;;;;;;;646.28;496.58;;;14.40;99.90;;;;;;5046169;28;20207;-74
2022/09/29 08:17:25;;;;;;;648.03;499.40;;;14.40;99.90;;;;;;5047772;28;20214;-74
2022/09/29 08:19:51;;;;;;;647.60;510.95;;;14.50;99.90;;;;;;5046674;28;20258;-75
2022/09/29 08:22:18;;;;;;;641.63;492.67;;;14.50;99.90;;;;;;5040610;28;20225;-74
2022/09/29 08:24:45;;;;;;;645.40;509.33;;;14.50;99.90;;;;;;5043904;28;20202;-76
2022/09/29 08:27:11;;;;;;;644.38;506.60;;;14.50;99.90;;;;;;5054199;28;20210;-75
2022/09/29 08:29:39;;;;;;;639.55;501.30;;;14.50;99.90;;;;;;5053113;28;20191;-75
2022/09/29 08:32:06;;;;;;;632.65;488.30;;;14.50;99.90;;;;;;5046527;28;20779;-75
2022/09/29 08:34:33;;;;;;;639.50;504.52;;;14.40;99.90;;;;;;5049124;28;20199;-75
2022/09/29 08:36:59;;;;;;;632.40;487.15;;;14.30;99.90;;;;;;5051157;28;20202;-76
2022/09/29 08:39:26;;;;;;;634.63;476.08;;;14.20;99.90;;;;;;5040769;28;20213;-74
2022/09/29 08:41:58;;;;;;;631.05;473.33;;;14.10;99.90;;;;;;5043636;28;20221;-74
2022/09/29 08:44:32;;;;;;;631.72;479.08;;;14.00;99.90;;;;;;5045570;28;20203;-74
2022/09/29 08:47:05;;;;;;;627.92;465.30;;;14.00;99.90;;;;;;5045274;28;20211;-73
2022/09/29 08:49:38;;;;;;;625.95;466.98;;;13.90;99.90;;;;;;5047014;28;20239;-73
2022/09/29 08:52:12;;;;;;;623.90;466.75;;;13.90;99.90;;;;;;5052711;28;20204;-73
2022/09/29 08:54:41;;;;;;;619.38;442.92;;;13.80;99.90;;;;;;5046442;28;20200;-73
2022/09/29 08:57:15;;;;;;;624.47;450.23;;;13.70;99.90;;;;;;5047218;28;20558;-73
2022/09/29 08:59:42;;;;;;;614.63;449.00;;;13.60;99.90;;;;;;5043630;28;20678;-73
2022/09/29 09:02:44;;;;;;;614.90;450.73;;;13.50;99.90;;;;;;5038392;28;20224;-73
2022/09/29 09:05:26;;;;;;;606.85;429.65;;;13.40;99.90;;;;;;5047192;28;20205;-73
2022/09/29 09:08:00;;;;;;;593.15;433.83;;;13.40;99.90;;;;;;5045377;28;20195;-75
2022/09/29 09:10:39;;;;;;;602.55;421.00;;;13.30;99.90;;;;;;5040852;28;20206;-72
2022/09/29 09:13:21;;;;;;;613.25;433.50;;;13.30;99.90;;;;;;5047732;28;20195;-73
2022/09/29 09:16:01;;;;;;;611.08;435.77;;;13.30;99.90;;;;;;5047260;28;20206;-74
2022/09/29 09:18:46;;;;;;;613.33;436.90;;;13.30;99.90;;;;;;5038919;28;20198;-73
2022/09/29 09:21:18;;;;;;;612.53;428.17;;;13.40;99.90;;;;;;5049622;28;20223;-73
2022/09/29 09:23:53;;;;;;;615.05;436.70;;;13.40;99.90;;;;;;5045294;28;20646;-74
2022/09/29 09:26:23;;;;;;;613.17;436.20;;;13.50;99.90;;;;;;5034741;28;20198;-76
2022/09/29 09:28:55;;;;;;;617.10;436.52;;;13.50;99.90;;;;;;5038776;28;20202;-74
2022/09/29 09:31:26;;;;;;;616.50;450.55;;;13.60;99.90;;;;;;5044227;28;20570;-74
2022/09/29 09:33:58;;;;;;;619.33;448.30;;;13.60;99.90;;;;;;5044720;28;20204;-73
2022/09/29 09:36:32;;;;;;;614.97;454.25;;;13.60;99.90;;;;;;5051248;28;20220;-73
2022/09/29 09:39:04;;;;;;;591.22;451.65;;;13.60;99.90;;;;;;5045042;28;20196;-74
2022/09/29 09:41:34;;;;;;;618.78;456.02;;;13.60;99.90;;;;;;5035476;28;20214;-74
2022/09/29 09:44:07;;;;;;;622.03;455.50;;;13.60;99.90;;;;;;5049940;28;20193;-73
2022/09/29 09:46:38;;;;;;;619.28;446.02;;;13.60;99.90;;;;;;5040096;28;20841;-74
2022/09/29 09:49:18;;;;;;;619.28;453.00;;;13.60;99.90;;;;;;5041746;28;20225;-73
2022/09/29 09:51:49;;;;;;;618.75;443.92;;;13.60;99.90;;;;;;5041993;28;20205;-73
2022/09/29 09:54:24;;;;;;;621.22;453.65;;;13.60;99.90;;;;;;5048155;28;20202;-73
2022/09/29 09:57:11;;;;;;;622.97;454.95;;;13.60;99.90;;;;;;5041848;28;20585;-72
2022/09/29 09:59:48;;;;;;;623.92;449.88;;;13.60;99.90;;;;;;5041398;28;20206;-73
2022/09/29 10:02:19;;;;;;;619.90;446.20;;;13.60;99.90;;;;;;5047723;28;20222;-73
2022/09/29 10:04:50;;;;;;;619.25;443.50;;;13.60;99.90;;;;;;5044803;28;20206;-72
2022/09/29 10:07:18;;;;;;;623.75;453.42;;;13.60;99.90;;;;;;5049645;28;20558;-74
2022/09/29 10:09:45;;;;;;;621.70;446.38;;;13.50;99.90;;;;;;5047430;28;20200;-73
2022/09/29 10:12:16;;;;;;;631.10;461.63;;;13.50;99.90;;;;;;5043645;28;20201;-75
2022/09/29 10:14:50;;;;;;;621.03;443.85;;;13.50;99.90;;;;;;5045140;28;20213;-74
2022/09/29 10:17:19;;;;;;;618.67;442.60;;;13.50;99.90;;;;;;5046219;28;20211;-73
2022/09/29 10:19:56;;;;;;;620.70;441.63;;;13.50;99.90;;;;;;5048245;28;20561;-74
2022/09/29 10:22:23;;;;;;;617.97;441.58;;;13.50;99.90;;;;;;5046871;28;20221;-75
2022/09/29 10:24:55;;;;;;;606.65;448.67;;;13.50;99.90;;;;;;5042264;28;20204;-76
2022/09/29 10:27:25;;;;;;;600.65;431.73;;;13.50;99.90;;;;;;5046675;28;20625;-76
2022/09/29 10:29:53;;;;;;;597.00;448.70;;;13.50;99.90;;;;;;5044761;28;20623;-75
2022/09/29 10:32:24;;;;;;;612.85;448.10;;;13.50;99.90;;;;;;5041379;28;20194;-76
2022/09/29 10:35:02;;;;;;;621.25;446.75;;;13.60;99.90;;;;;;5041824;28;20212;-75
2022/09/29 10:37:34;;;;;;;612.78;441.70;;;13.60;99.90;;;;;;5043522;28;20223;-75
2022/09/29 10:40:04;;;;;;;617.65;457.48;;;13.60;99.90;;;;;;5038850;28;20198;-76
2022/09/29 10:42:34;;;;;;;613.42;442.30;;;13.60;99.90;;;;;;5048864;28;20214;-76
2022/09/29 10:45:10;;;;;;;616.13;448.38;;;13.70;99.90;;;;;;5049962;28;20210;-76
2022/09/29 10:47:37;;;;;;;617.63;448.80;;;13.70;99.90;;;;;;5046220;28;20684;-76
2022/09/29 10:50:17;;;;;;;613.08;460.13;;;13.70;99.90;;;;;;5048072;28;20280;-76
2022/09/29 10:52:47;;;;;;;608.80;449.23;;;13.80;99.90;;;;;;5048595;28;20206;-76
2022/09/29 10:55:20;;;;;;;609.53;448.67;;;13.80;99.90;;;;;;5056337;28;20206;-75
2022/09/29 10:57:48;;;;;;;608.60;455.02;;;13.80;99.90;;;;;;5049609;28;20209;-75
2022/09/29 11:00:29;;;;;;;610.53;451.25;;;13.80;99.90;;;;;;5043435;28;20286;-75
2022/09/29 11:03:04;;;;;;;615.45;458.65;;;13.80;99.90;;;;;;5043248;28;20620;-76
2022/09/29 11:05:33;;;;;;;613.90;451.83;;;13.80;99.90;;;;;;5045100;28;20306;-76
2022/09/29 11:07:59;;;;;;;617.25;467.27;;;13.80;99.90;;;;;;5047111;28;20539;-75
2022/09/29 11:10:31;;;;;;;614.85;462.52;;;13.80;99.90;;;;;;5032985;28;20216;-75
2022/09/29 11:12:59;;;;;;;613.10;457.60;;;13.80;99.90;;;;;;5041239;28;20206;-75
2022/09/29 11:15:28;;;;;;;612.55;464.77;;;13.80;99.90;;;;;;5047994;28;20205;-75
2022/09/29 11:17:55;;;;;;;612.15;456.15;;;13.80;99.90;;;;;;5043808;28;20233;-76
2022/09/29 11:20:26;;;;;;;613.85;462.02;;;13.80;99.90;;;;;;5043106;28;20200;-76
2022/09/29 11:23:22;;;;;;;611.03;457.30;;;13.80;99.90;;;;;;5047172;28;20233;-75
2022/09/29 11:26:09;;;;;;;611.42;452.67;;;13.80;99.90;;;;;;5035201;28;20193;-75
2022/09/29 11:28:48;;;;;;;608.40;445.15;;;13.90;99.90;;;;;;5041684;28;20395;-76
2022/09/29 11:31:39;;;;;;;616.60;468.23;;;13.90;99.90;;;;;;5045457;28;20255;-75
2022/09/29 11:34:22;;;;;;;608.67;452.85;;;13.90;99.90;;;;;;5030680;28;20195;-74
2022/09/29 11:36:59;;;;;;;603.03;445.30;;;13.90;99.90;;;;;;5040619;28;20205;-76
2022/09/29 11:39:40;;;;;;;604.22;453.10;;;13.90;99.90;;;;;;5048911;28;20194;-75
2022/09/29 11:42:18;;;;;;;590.17;450.20;;;13.90;99.90;;;;;;5042389;28;20551;-76
2022/09/29 11:44:58;;;;;;;586.00;455.33;;;13.90;99.90;;;;;;5034999;28;20704;-77
2022/09/29 11:47:48;;;;;;;585.85;462.10;;;14.00;99.90;;;;;;5043071;28;20200;-76
2022/09/29 11:50:37;;;;;;;586.15;456.67;;;14.00;99.90;;;;;;5042410;28;20277;-76
2022/09/29 11:53:24;;;;;;;582.08;455.50;;;14.00;99.90;;;;;;5040900;28;20194;-76
2022/09/29 11:56:09;;;;;;;584.65;460.95;;;14.00;99.90;;;;;;5037216;28;20212;-77
2022/09/29 11:58:50;;;;;;;581.55;458.38;;;14.00;99.90;;;;;;5048053;28;20220;-77
2022/09/29 12:01:36;;;;;;;579.53;455.67;;;14.00;99.90;;;;;;5042376;28;20369;-77
2022/09/29 12:04:20;;;;;;;581.53;460.67;;;14.00;99.90;;;;;;5040976;28;20206;-79
2022/09/29 12:06:56;;;;;;;579.33;456.25;;;14.00;99.90;;;;;;5041015;28;20224;-78
2022/09/29 12:09:56;;;;;;;577.67;462.88;;;14.00;99.90;;;;;;5038277;28;20685;-76
2022/09/29 12:12:35;;;;;;;577.35;452.45;;;14.00;99.90;;;;;;5040022;28;20209;-77
2022/09/29 12:15:09;;;;;;;579.67;460.88;;;14.00;99.90;;;;;;5045476;28;20225;-76
2022/09/29 12:17:39;;;;;;;580.33;460.55;;;14.00;99.90;;;;;;5049927;28;20375;-76
2022/09/29 12:20:16;;;;;;;581.72;471.27;;;14.00;99.90;;;;;;5036016;28;20191;-77
2022/09/29 12:22:45;;;;;;;578.00;463.67;;;14.00;99.90;;;;;;5053273;28;20684;-76
2022/09/29 12:25:16;;;;;;;573.15;451.83;;;14.00;99.90;;;;;;5047021;28;20197;-76
2022/09/29 12:27:47;;;;;;;581.78;469.27;;;14.00;99.90;;;;;;5043368;28;20191;-76